Time;durP1;ratioP1;P1;durP2;ratioP2;P2;SDS_P1;SDS_P2;PMS_P1;PMS_P2;Temp;Humidity;BMP_temperature;BMP_pressure;BME280_temperature;BME280_humidity;BME280_pressure;Samples;Min_cycle;Max_cycle;Signal;HPM_P1;HPM_P2
2024/02/11 00:00:24;;;;;;;15.98;9.18;;;9.80;69.00;;;;;;5081982;28;20231;-69
2024/02/11 00:02:56;;;;;;;9.73;7.05;;;9.80;68.80;;;;;;5095396;28;20194;-69
2024/02/11 00:05:31;;;;;;;7.60;4.63;;;9.80;67.30;;;;;;5095876;28;20230;-69
2024/02/11 00:07:59;;;;;;;6.53;4.20;;;9.90;64.60;;;;;;5095276;28;20643;-69
2024/02/11 00:10:26;;;;;;;5.75;4.05;;;9.90;64.50;;;;;;5095320;28;20304;-69
2024/02/11 00:12:54;;;;;;;7.15;4.40;;;9.90;64.50;;;;;;5095454;28;20220;-69
2024/02/11 00:15:22;;;;;;;9.40;4.40;;;9.90;64.10;;;;;;5086537;28;20201;-69
2024/02/11 00:17:52;;;;;;;9.88;7.35;;;10.00;63.20;;;;;;5074618;28;20225;-69
2024/02/11 00:20:19;;;;;;;10.25;7.65;;;10.10;64.20;;;;;;5074720;28;20189;-68
2024/02/11 00:23:00;;;;;;;13.30;7.95;;;10.10;65.60;;;;;;5074654;28;20198;-69
2024/02/11 00:25:38;;;;;;;8.70;6.45;;;10.10;66.50;;;;;;5075096;28;20272;-70
2024/02/11 00:28:06;;;;;;;9.88;7.32;;;10.10;66.90;;;;;;5074991;28;20544;-71
2024/02/11 00:30:39;;;;;;;10.13;6.15;;;10.10;66.60;;;;;;5074871;28;20233;-69
2024/02/11 00:33:06;;;;;;;8.93;5.95;;;10.20;67.00;;;;;;5074579;28;20621;-69
2024/02/11 00:35:34;;;;;;;6.88;4.95;;;10.20;66.90;;;;;;5074239;28;20721;-69
2024/02/11 00:38:02;;;;;;;6.53;1.80;;;10.20;66.90;;;;;;5074767;28;20178;-69
2024/02/11 00:40:38;;;;;;;2.92;1.15;;;10.30;65.20;;;;;;5085343;28;20244;-69
2024/02/11 00:43:07;;;;;;;2.00;1.00;;;10.40;64.50;;;;;;5094618;28;20212;-69
2024/02/11 00:45:37;;;;;;;2.75;1.00;;;10.50;64.70;;;;;;5094407;28;20193;-69
2024/02/11 00:48:05;;;;;;;2.00;0.93;;;10.60;64.70;;;;;;5094508;28;20264;-69
2024/02/11 00:50:33;;;;;;;2.05;1.00;;;10.70;64.20;;;;;;5094588;28;20248;-69
2024/02/11 00:53:04;;;;;;;1.85;0.73;;;10.70;63.90;;;;;;5094965;28;20189;-70
2024/02/11 00:55:33;;;;;;;1.90;0.70;;;10.80;63.80;;;;;;5094620;28;20174;-69
2024/02/11 00:58:02;;;;;;;4.53;2.78;;;10.90;64.20;;;;;;5094434;28;20194;-69
2024/02/11 01:00:29;;;;;;;7.90;5.18;;;11.00;64.60;;;;;;5094191;28;20193;-69
2024/02/11 01:02:56;;;;;;;7.03;5.32;;;11.00;64.90;;;;;;5094695;28;20202;-69
2024/02/11 01:05:26;;;;;;;6.90;4.90;;;11.00;64.80;;;;;;5094594;28;20188;-70
2024/02/11 01:07:54;;;;;;;6.65;4.07;;;11.00;64.20;;;;;;5094529;28;20181;-69
2024/02/11 01:10:25;;;;;;;5.55;2.90;;;11.00;63.20;;;;;;5093965;28;20213;-69
2024/02/11 01:12:55;;;;;;;4.47;2.67;;;11.10;63.20;;;;;;5094334;28;20185;-69
2024/02/11 01:15:26;;;;;;;3.40;2.10;;;11.10;63.40;;;;;;5093796;28;20506;-69
2024/02/11 01:17:54;;;;;;;2.90;2.10;;;11.10;63.20;;;;;;5094280;28;20180;-69
2024/02/11 01:20:24;;;;;;;2.87;1.80;;;11.20;63.40;;;;;;5094127;28;20852;-69
2024/02/11 01:22:54;;;;;;;2.90;1.70;;;11.20;63.40;;;;;;5094272;28;20426;-69
2024/02/11 01:25:23;;;;;;;2.95;1.95;;;11.30;63.30;;;;;;5093698;28;20419;-69
2024/02/11 01:27:56;;;;;;;3.43;2.10;;;11.30;63.00;;;;;;5093769;28;20246;-69
2024/02/11 01:30:24;;;;;;;4.00;2.05;;;11.30;63.10;;;;;;5077183;28;20537;-69
2024/02/11 01:32:57;;;;;;;3.90;2.30;;;11.40;63.10;;;;;;5073244;28;20281;-69
2024/02/11 01:35:29;;;;;;;3.33;1.90;;;11.40;63.10;;;;;;5090216;28;20424;-69
2024/02/11 01:37:56;;;;;;;5.20;2.17;;;11.40;63.60;;;;;;5093594;28;20502;-69
2024/02/11 01:40:25;;;;;;;6.10;2.80;;;11.50;63.80;;;;;;5093238;28;20461;-69
2024/02/11 01:42:56;;;;;;;4.67;2.80;;;11.50;64.00;;;;;;5093511;28;20512;-69
2024/02/11 01:45:25;;;;;;;5.20;3.53;;;11.60;64.70;;;;;;5093951;28;20473;-69
2024/02/11 01:47:56;;;;;;;6.03;3.80;;;11.60;65.00;;;;;;5093822;28;20438;-69
2024/02/11 01:50:32;;;;;;;6.40;4.97;;;11.60;65.50;;;;;;5093790;28;20550;-69
2024/02/11 01:53:00;;;;;;;5.70;4.60;;;11.60;66.20;;;;;;5093455;28;20416;-69
2024/02/11 01:55:35;;;;;;;11.03;5.80;;;11.70;66.70;;;;;;5075254;28;20432;-69
2024/02/11 01:58:02;;;;;;;7.03;5.53;;;11.70;67.50;;;;;;5073500;28;20432;-69
2024/02/11 02:00:30;;;;;;;7.90;6.50;;;11.70;68.40;;;;;;5073355;28;20450;-69
2024/02/11 02:03:01;;;;;;;9.70;6.30;;;11.70;69.30;;;;;;5073348;28;20432;-69
2024/02/11 02:05:35;;;;;;;9.73;6.40;;;11.70;70.30;;;;;;5073162;28;20428;-69
2024/02/11 02:08:08;;;;;;;8.10;6.07;;;11.70;70.70;;;;;;5073055;28;20459;-70
2024/02/11 02:10:37;;;;;;;8.90;6.10;;;11.70;70.90;;;;;;5052970;28;20962;-69
2024/02/11 02:13:04;;;;;;;8.13;7.20;;;11.70;71.50;;;;;;5053622;28;20460;-69
2024/02/11 02:15:34;;;;;;;9.40;7.23;;;11.70;71.90;;;;;;5059569;28;20482;-69
2024/02/11 02:18:01;;;;;;;10.30;7.30;;;11.70;72.20;;;;;;5073304;28;20436;-69
2024/02/11 02:20:33;;;;;;;8.93;6.63;;;11.70;72.60;;;;;;5088585;28;20859;-69
2024/02/11 02:23:01;;;;;;;8.87;7.87;;;11.70;72.90;;;;;;5093170;28;20477;-69
2024/02/11 02:25:30;;;;;;;10.07;6.97;;;11.70;73.20;;;;;;5093483;28;20431;-69
2024/02/11 02:27:57;;;;;;;9.73;6.90;;;11.70;73.30;;;;;;5093374;28;20420;-70
2024/02/11 02:30:28;;;;;;;9.77;8.03;;;11.70;73.60;;;;;;5084566;28;20517;-69
2024/02/11 02:33:10;;;;;;;7.57;6.30;;;11.70;74.00;;;;;;5072642;28;20429;-69
2024/02/11 02:35:37;;;;;;;9.50;7.37;;;11.70;74.20;;;;;;5072743;28;20416;-69
2024/02/11 02:38:08;;;;;;;9.07;8.17;;;11.70;74.30;;;;;;5073432;28;20463;-69
2024/02/11 02:40:39;;;;;;;7.90;7.10;;;11.70;74.60;;;;;;5073065;28;20651;-69
2024/02/11 02:43:11;;;;;;;8.77;7.27;;;11.70;75.10;;;;;;5073103;28;20429;-69
2024/02/11 02:45:39;;;;;;;9.53;7.30;;;11.70;75.90;;;;;;5073247;28;20507;-69
2024/02/11 02:48:07;;;;;;;9.80;8.37;;;11.70;76.40;;;;;;5073137;28;20476;-69
2024/02/11 02:50:36;;;;;;;8.70;6.83;;;11.60;76.60;;;;;;5072954;28;20961;-69
2024/02/11 02:53:03;;;;;;;9.17;6.60;;;11.60;76.70;;;;;;5073258;28;20440;-69
2024/02/11 02:55:36;;;;;;;8.23;7.07;;;11.60;77.10;;;;;;5072655;28;20535;-69
2024/02/11 02:58:05;;;;;;;6.40;5.10;;;11.60;77.50;;;;;;5072563;28;20430;-69
2024/02/11 03:00:34;;;;;;;10.93;6.13;;;11.60;77.60;;;;;;5072631;28;20547;-69
2024/02/11 03:03:07;;;;;;;7.07;5.00;;;11.60;77.60;;;;;;5072707;28;20436;-69
2024/02/11 03:05:37;;;;;;;8.27;4.83;;;11.50;77.90;;;;;;5072976;28;20425;-69
2024/02/11 03:08:08;;;;;;;6.83;5.87;;;11.50;78.20;;;;;;5072912;28;20526;-69
2024/02/11 03:10:41;;;;;;;6.93;4.93;;;11.50;78.60;;;;;;5076410;28;20558;-69
2024/02/11 03:13:12;;;;;;;7.40;5.40;;;11.40;78.60;;;;;;5093173;28;20419;-69
2024/02/11 03:15:40;;;;;;;9.33;4.70;;;11.40;79.20;;;;;;5092690;28;20791;-69
2024/02/11 03:18:09;;;;;;;7.70;4.68;;;11.40;79.20;;;;;;5093370;28;20427;-69
2024/02/11 03:20:41;;;;;;;9.38;4.70;;;11.40;79.60;;;;;;5096565;28;20197;-69
2024/02/11 03:23:12;;;;;;;6.10;4.17;;;11.40;80.00;;;;;;5096716;28;20594;-69
2024/02/11 03:25:41;;;;;;;5.60;4.20;;;11.40;80.30;;;;;;5095844;28;20424;-69
2024/02/11 03:28:11;;;;;;;5.50;3.37;;;11.40;80.70;;;;;;5096242;28;20514;-69
2024/02/11 03:30:43;;;;;;;4.60;3.30;;;11.40;80.80;;;;;;5096477;28;20499;-69
2024/02/11 03:33:10;;;;;;;3.77;2.60;;;11.40;80.90;;;;;;5096353;28;20419;-69
2024/02/11 03:35:39;;;;;;;3.50;2.17;;;11.30;80.90;;;;;;5096055;28;20963;-69
2024/02/11 03:38:09;;;;;;;2.30;1.03;;;11.30;79.60;;;;;;5096355;28;20462;-69
2024/02/11 03:40:36;;;;;;;2.10;1.03;;;11.30;74.00;;;;;;5083914;28;20456;-69
2024/02/11 03:43:05;;;;;;;1.95;0.85;;;11.20;73.10;;;;;;5076059;28;20421;-69
2024/02/11 03:45:32;;;;;;;2.03;0.82;;;11.00;72.10;;;;;;5075974;28;20186;-69
2024/02/11 03:48:02;;;;;;;2.10;0.80;;;10.90;72.50;;;;;;5075334;28;20702;-69
2024/02/11 03:50:30;;;;;;;1.70;0.80;;;10.80;71.80;;;;;;5075553;28;20551;-69
2024/02/11 03:52:58;;;;;;;2.20;0.98;;;10.60;71.40;;;;;;5075567;28;20190;-69
2024/02/11 03:55:29;;;;;;;3.05;0.90;;;10.60;72.60;;;;;;5075930;28;20703;-69
2024/02/11 03:58:01;;;;;;;2.50;0.75;;;10.50;71.60;;;;;;5075956;28;20197;-69
2024/02/11 04:00:31;;;;;;;2.47;0.98;;;10.40;71.50;;;;;;5075816;28;20204;-69
2024/02/11 04:03:03;;;;;;;1.90;0.77;;;10.30;71.80;;;;;;5075322;28;20190;-69
2024/02/11 04:05:37;;;;;;;1.70;0.70;;;10.20;71.60;;;;;;5075190;28;20267;-69
2024/02/11 04:08:11;;;;;;;1.70;0.63;;;10.10;71.40;;;;;;5074956;28;20174;-69
2024/02/11 04:10:39;;;;;;;1.70;0.60;;;10.00;72.20;;;;;;5075005;28;20243;-69
2024/02/11 04:13:12;;;;;;;1.70;0.60;;;9.90;73.10;;;;;;5075120;28;20190;-69
2024/02/11 04:15:42;;;;;;;1.80;0.70;;;9.90;73.00;;;;;;5075484;28;20273;-69
2024/02/11 04:18:10;;;;;;;1.70;0.60;;;9.80;72.70;;;;;;5075421;28;20194;-69
2024/02/11 04:20:38;;;;;;;2.33;0.80;;;9.70;73.30;;;;;;5074951;28;20194;-69
2024/02/11 04:23:07;;;;;;;1.70;0.60;;;9.70;73.20;;;;;;5075039;28;20611;-68
2024/02/11 04:25:41;;;;;;;2.00;0.80;;;9.60;73.70;;;;;;5075151;28;20652;-69
2024/02/11 04:28:13;;;;;;;1.70;0.60;;;9.60;73.20;;;;;;5074788;28;20191;-69
2024/02/11 04:30:43;;;;;;;1.70;0.63;;;9.50;73.70;;;;;;5074375;28;20248;-69
2024/02/11 04:33:14;;;;;;;1.70;0.50;;;9.50;73.30;;;;;;5075072;28;20271;-69
2024/02/11 04:35:41;;;;;;;1.70;0.60;;;9.40;73.70;;;;;;5088517;28;20213;-69
2024/02/11 04:38:12;;;;;;;1.60;0.50;;;9.30;73.30;;;;;;5094860;28;20687;-69
2024/02/11 04:40:40;;;;;;;1.80;0.70;;;9.30;73.30;;;;;;5094602;28;20698;-69
2024/02/11 04:43:12;;;;;;;1.70;0.60;;;9.20;73.30;;;;;;5094837;28;20188;-69
2024/02/11 04:45:41;;;;;;;1.70;0.60;;;9.20;72.90;;;;;;5082446;28;20181;-69
2024/02/11 04:48:09;;;;;;;1.70;0.60;;;9.10;73.00;;;;;;5074725;28;20190;-69
2024/02/11 04:50:48;;;;;;;1.70;0.60;;;9.10;72.70;;;;;;5074570;28;20589;-69
2024/02/11 04:53:18;;;;;;;1.70;0.60;;;9.10;72.30;;;;;;5074694;28;20553;-69
2024/02/11 04:55:49;;;;;;;1.85;0.60;;;9.00;71.40;;;;;;5074526;28;20182;-69
2024/02/11 04:58:23;;;;;;;1.77;0.70;;;9.00;70.70;;;;;;5074496;28;20182;-69
2024/02/11 05:00:52;;;;;;;1.80;0.70;;;8.90;70.20;;;;;;5074571;28;20182;-69
2024/02/11 05:03:20;;;;;;;1.70;0.60;;;8.80;70.80;;;;;;5074485;28;20221;-69
2024/02/11 05:05:49;;;;;;;1.70;0.65;;;8.80;70.30;;;;;;5073707;28;20277;-69
2024/02/11 05:08:17;;;;;;;1.70;0.60;;;8.70;70.30;;;;;;5074164;28;20277;-69
2024/02/11 05:10:51;;;;;;;1.70;0.60;;;8.60;70.70;;;;;;5074249;28;20186;-69
2024/02/11 05:13:27;;;;;;;2.00;0.63;;;8.50;70.80;;;;;;5074359;28;20269;-69
2024/02/11 05:15:59;;;;;;;1.60;0.55;;;8.50;70.90;;;;;;5074000;28;20205;-69
2024/02/11 05:18:29;;;;;;;2.13;0.60;;;8.40;72.10;;;;;;5074374;28;20182;-69
2024/02/11 05:21:02;;;;;;;1.80;0.80;;;8.30;73.00;;;;;;5073903;28;20640;-69
2024/02/11 05:23:31;;;;;;;3.95;0.77;;;8.30;73.20;;;;;;5073786;28;20215;-69
2024/02/11 05:26:00;;;;;;;1.80;0.60;;;8.20;73.20;;;;;;5073795;28;20228;-69
2024/02/11 05:28:43;;;;;;;1.80;0.70;;;8.20;73.70;;;;;;5073667;28;20557;-69
2024/02/11 05:31:12;;;;;;;3.35;0.85;;;8.20;74.70;;;;;;5073705;28;20202;-68
2024/02/11 05:33:39;;;;;;;1.80;0.90;;;8.20;74.40;;;;;;5073614;28;20221;-68
2024/02/11 05:36:13;;;;;;;1.65;0.60;;;8.10;74.50;;;;;;5073861;28;20197;-69
2024/02/11 05:38:40;;;;;;;2.60;0.70;;;8.10;74.90;;;;;;5073640;28;20193;-69
2024/02/11 05:41:08;;;;;;;1.70;0.60;;;8.10;75.00;;;;;;5072856;28;20276;-69
2024/02/11 05:43:36;;;;;;;2.08;0.75;;;8.20;74.40;;;;;;5073764;28;20212;-69
2024/02/11 05:46:03;;;;;;;1.90;0.70;;;8.10;74.20;;;;;;5073404;28;20699;-68
2024/02/11 05:48:31;;;;;;;1.70;0.70;;;8.10;74.30;;;;;;5074064;28;20190;-69
2024/02/11 05:51:03;;;;;;;1.77;0.70;;;8.10;73.90;;;;;;5073042;28;20217;-69
2024/02/11 05:53:35;;;;;;;1.80;0.55;;;8.00;74.00;;;;;;5073389;28;20228;-68
2024/02/11 05:56:07;;;;;;;1.90;0.70;;;8.00;73.60;;;;;;5073309;28;20679;-69
2024/02/11 05:58:34;;;;;;;1.70;0.60;;;7.90;73.50;;;;;;5072862;28;20179;-69
2024/02/11 06:01:04;;;;;;;1.77;0.77;;;7.90;73.60;;;;;;5073334;28;20198;-69
2024/02/11 06:03:33;;;;;;;1.75;0.70;;;7.80;73.90;;;;;;5073184;28;20190;-69
2024/02/11 06:06:06;;;;;;;1.70;0.60;;;7.80;74.00;;;;;;5072916;28;20278;-69
2024/02/11 06:08:55;;;;;;;1.75;0.70;;;7.80;73.90;;;;;;5073351;28;20270;-69
2024/02/11 06:11:25;;;;;;;1.80;0.70;;;7.70;74.10;;;;;;5064641;28;20222;-69
2024/02/11 06:13:56;;;;;;;1.70;0.60;;;7.70;74.40;;;;;;5083552;28;20205;-69
2024/02/11 06:16:30;;;;;;;2.03;0.82;;;7.70;75.40;;;;;;5072947;28;20198;-69
2024/02/11 06:19:04;;;;;;;1.80;0.70;;;7.60;75.50;;;;;;5064405;28;20178;-69
2024/02/11 06:21:31;;;;;;;4.07;0.93;;;7.60;75.40;;;;;;5072626;28;20186;-69
2024/02/11 06:24:05;;;;;;;2.00;1.00;;;7.60;75.70;;;;;;5073258;28;20276;-68
2024/02/11 06:26:33;;;;;;;1.90;0.77;;;7.60;76.00;;;;;;5073427;28;20178;-68
2024/02/11 06:29:04;;;;;;;1.80;0.80;;;7.60;76.20;;;;;;5073321;28;20198;-68
2024/02/11 06:31:32;;;;;;;2.00;0.88;;;7.60;76.10;;;;;;5053243;28;20599;-68
2024/02/11 06:34:06;;;;;;;1.80;0.70;;;7.60;76.60;;;;;;5053302;28;20226;-69
2024/02/11 06:36:39;;;;;;;2.30;0.75;;;7.60;76.10;;;;;;5053260;28;20178;-69
2024/02/11 06:39:11;;;;;;;1.90;0.77;;;7.70;76.60;;;;;;5053216;28;20543;-69
2024/02/11 06:41:39;;;;;;;1.90;0.90;;;7.70;76.10;;;;;;5053148;28;20264;-68
2024/02/11 06:44:08;;;;;;;1.98;0.90;;;7.70;75.70;;;;;;5059222;28;20236;-69
2024/02/11 06:46:36;;;;;;;1.90;0.80;;;7.70;76.00;;;;;;5091064;28;20225;-68
2024/02/11 06:49:04;;;;;;;1.83;0.88;;;7.70;76.20;;;;;;5092789;28;20648;-69
2024/02/11 06:51:32;;;;;;;1.90;0.70;;;7.80;76.10;;;;;;5092442;28;20560;-69
2024/02/11 06:54:00;;;;;;;1.90;0.82;;;7.80;76.00;;;;;;5096501;28;20556;-69
2024/02/11 06:56:29;;;;;;;2.00;0.90;;;7.80;75.50;;;;;;5095919;28;20213;-69
2024/02/11 06:58:59;;;;;;;2.28;1.10;;;7.80;74.70;;;;;;5096627;28;20927;-69
2024/02/11 07:01:27;;;;;;;1.80;0.80;;;7.80;75.50;;;;;;5094627;28;20189;-69
2024/02/11 07:03:54;;;;;;;1.70;0.60;;;7.80;75.60;;;;;;5075696;28;20214;-69
2024/02/11 07:06:23;;;;;;;2.20;1.00;;;7.80;75.80;;;;;;5075029;28;20187;-69
2024/02/11 07:08:51;;;;;;;2.00;0.90;;;7.80;76.20;;;;;;5077269;28;20218;-68
2024/02/11 07:11:19;;;;;;;3.88;2.10;;;7.80;76.80;;;;;;5077952;28;20190;-69
2024/02/11 07:13:51;;;;;;;2.40;1.05;;;7.80;76.80;;;;;;5068293;28;20232;-69
2024/02/11 07:16:18;;;;;;;2.40;1.23;;;7.90;75.70;;;;;;5072888;28;20197;-68
2024/02/11 07:18:47;;;;;;;2.38;1.20;;;7.90;76.00;;;;;;5074511;28;20233;-69
2024/02/11 07:21:24;;;;;;;1.98;0.90;;;7.90;76.20;;;;;;5073707;28;20644;-69
2024/02/11 07:23:53;;;;;;;2.00;0.80;;;7.90;76.00;;;;;;5074694;28;20273;-69
2024/02/11 07:26:25;;;;;;;2.50;1.13;;;8.00;74.60;;;;;;5081714;28;20186;-69
2024/02/11 07:28:53;;;;;;;1.90;0.90;;;7.90;75.20;;;;;;5074730;28;20606;-69
2024/02/11 07:31:23;;;;;;;2.20;1.00;;;7.90;73.30;;;;;;5074469;28;20190;-69
2024/02/11 07:33:51;;;;;;;2.38;1.00;;;7.90;73.70;;;;;;5075009;28;20226;-69
2024/02/11 07:36:26;;;;;;;1.88;0.85;;;7.80;74.70;;;;;;5074673;28;20194;-69
2024/02/11 07:38:55;;;;;;;1.98;0.90;;;7.90;75.70;;;;;;5074572;28;20182;-69
2024/02/11 07:41:23;;;;;;;1.92;0.77;;;7.90;75.60;;;;;;5074519;28;20260;-69
2024/02/11 07:43:50;;;;;;;2.65;1.45;;;7.90;75.60;;;;;;5074801;28;20212;-69
2024/02/11 07:46:21;;;;;;;2.58;1.42;;;7.90;74.70;;;;;;5074050;28;20251;-69
2024/02/11 07:48:48;;;;;;;2.72;1.38;;;8.00;75.00;;;;;;5074624;28;20711;-69
2024/02/11 07:51:21;;;;;;;3.05;1.40;;;8.00;74.70;;;;;;5074349;28;20229;-69
2024/02/11 07:53:54;;;;;;;2.65;1.38;;;8.00;74.50;;;;;;5078026;28;20181;-69
2024/02/11 07:56:26;;;;;;;3.55;1.95;;;8.00;74.60;;;;;;5094609;28;20186;-69
2024/02/11 07:58:53;;;;;;;2.60;1.05;;;8.00;74.70;;;;;;5083777;28;20182;-69
2024/02/11 08:01:21;;;;;;;2.10;0.90;;;8.00;73.70;;;;;;5074642;28;20226;-69
2024/02/11 08:03:49;;;;;;;2.30;0.98;;;8.10;73.30;;;;;;5073521;28;20198;-69
2024/02/11 08:06:17;;;;;;;2.13;1.20;;;8.00;73.80;;;;;;5074447;28;20186;-69
2024/02/11 08:08:44;;;;;;;2.13;0.98;;;8.00;74.50;;;;;;5086798;28;20659;-69
2024/02/11 08:11:14;;;;;;;1.85;0.70;;;8.00;74.10;;;;;;5073995;28;20229;-68
2024/02/11 08:13:43;;;;;;;2.00;1.00;;;8.10;73.00;;;;;;5080241;28;20267;-69
2024/02/11 08:16:15;;;;;;;2.20;1.08;;;8.10;72.80;;;;;;5094332;28;20221;-69
2024/02/11 08:18:42;;;;;;;2.20;1.00;;;8.10;73.00;;;;;;5094639;28;20185;-69
2024/02/11 08:21:11;;;;;;;4.30;2.17;;;8.00;72.90;;;;;;5074623;28;20277;-69
2024/02/11 08:23:43;;;;;;;3.00;1.45;;;8.00;73.50;;;;;;5074592;28;20194;-69
2024/02/11 08:26:17;;;;;;;2.47;1.08;;;8.00;74.00;;;;;;5074275;28;20214;-69
2024/02/11 08:28:49;;;;;;;2.70;1.50;;;8.00;73.90;;;;;;5073739;28;20174;-69
2024/02/11 08:31:20;;;;;;;3.17;1.90;;;8.10;74.70;;;;;;5074084;28;20179;-69
2024/02/11 08:33:47;;;;;;;2.50;1.20;;;8.10;74.50;;;;;;5074221;28;20279;-69
2024/02/11 08:36:15;;;;;;;4.45;2.78;;;8.10;73.90;;;;;;5073607;28;20197;-69
2024/02/11 08:38:44;;;;;;;2.53;1.50;;;8.10;73.90;;;;;;5073060;28;20234;-69
2024/02/11 08:41:11;;;;;;;2.70;1.50;;;8.10;74.00;;;;;;5073043;28;20241;-69
2024/02/11 08:43:40;;;;;;;2.50;1.38;;;8.10;74.10;;;;;;5073561;28;20285;-69
2024/02/11 08:46:07;;;;;;;2.20;1.17;;;8.10;74.40;;;;;;5073401;28;20198;-69
2024/02/11 08:48:34;;;;;;;2.17;1.30;;;8.20;73.70;;;;;;5073042;28;20229;-69
2024/02/11 08:51:01;;;;;;;2.38;1.10;;;8.20;73.30;;;;;;5069582;28;20190;-70
2024/02/11 08:53:29;;;;;;;2.00;1.00;;;8.20;73.40;;;;;;5065907;28;20755;-69
2024/02/11 08:55:59;;;;;;;2.28;0.90;;;8.20;73.10;;;;;;5063664;28;20194;-69
2024/02/11 08:58:27;;;;;;;2.17;0.90;;;8.30;73.40;;;;;;5068408;28;20182;-69
2024/02/11 09:00:56;;;;;;;2.00;1.02;;;8.30;73.10;;;;;;5068638;28;20194;-69
2024/02/11 09:03:23;;;;;;;2.22;1.10;;;8.30;72.80;;;;;;5072811;28;20202;-69
2024/02/11 09:05:50;;;;;;;2.50;1.17;;;8.30;73.00;;;;;;5072842;28;20186;-69
2024/02/11 09:08:17;;;;;;;2.50;1.30;;;8.30;73.70;;;;;;5073208;28;20247;-69
2024/02/11 09:10:44;;;;;;;2.20;0.95;;;8.40;73.90;;;;;;5073026;28;20587;-69
2024/02/11 09:13:11;;;;;;;2.20;1.10;;;8.40;72.60;;;;;;5073055;28;20246;-69
2024/02/11 09:15:38;;;;;;;2.70;1.20;;;8.40;72.60;;;;;;5073025;28;20186;-69
2024/02/11 09:18:08;;;;;;;2.45;1.20;;;8.40;72.40;;;;;;5082389;28;20177;-69
2024/02/11 09:20:36;;;;;;;2.35;1.23;;;8.50;72.40;;;;;;5080287;28;20182;-69
2024/02/11 09:23:03;;;;;;;2.70;1.58;;;8.50;72.80;;;;;;5070079;28;20676;-69
2024/02/11 09:25:30;;;;;;;3.55;1.60;;;8.50;72.20;;;;;;5072706;28;20225;-69
2024/02/11 09:27:58;;;;;;;2.67;1.45;;;8.60;72.20;;;;;;5072299;28;20277;-69
2024/02/11 09:30:25;;;;;;;2.88;1.70;;;8.60;72.40;;;;;;5071852;28;20182;-67
2024/02/11 09:32:52;;;;;;;2.80;1.60;;;8.60;72.00;;;;;;5072744;28;20214;-67
2024/02/11 09:35:21;;;;;;;3.15;1.85;;;8.70;70.90;;;;;;5072895;28;20202;-67
2024/02/11 09:37:48;;;;;;;3.22;1.80;;;8.70;70.70;;;;;;5072764;28;20281;-66
2024/02/11 09:40:17;;;;;;;3.00;1.67;;;8.70;70.50;;;;;;5071459;28;20190;-69
2024/02/11 09:42:46;;;;;;;4.45;2.40;;;8.80;70.70;;;;;;5087490;28;20187;-69
2024/02/11 09:45:16;;;;;;;3.35;2.35;;;8.80;71.60;;;;;;5076282;28;20221;-67
2024/02/11 09:47:49;;;;;;;3.65;2.10;;;8.90;72.00;;;;;;5072115;28;20178;-68
2024/02/11 09:50:17;;;;;;;4.57;2.58;;;8.90;71.40;;;;;;5061451;28;20656;-68
2024/02/11 09:52:47;;;;;;;3.85;2.50;;;9.00;70.30;;;;;;5079305;28;20213;-68
2024/02/11 09:55:15;;;;;;;3.83;2.28;;;9.10;70.70;;;;;;5072020;28;20190;-68
2024/02/11 09:57:42;;;;;;;3.03;1.77;;;9.10;70.90;;;;;;5071843;28;20194;-68
2024/02/11 10:00:10;;;;;;;3.65;2.10;;;9.20;68.60;;;;;;5072234;28;20186;-68
2024/02/11 10:02:40;;;;;;;3.05;2.05;;;9.20;69.60;;;;;;5071286;28;20289;-68
2024/02/11 10:05:11;;;;;;;3.20;2.10;;;9.30;69.80;;;;;;5078637;28;20275;-68
2024/02/11 10:07:44;;;;;;;4.28;3.13;;;9.40;69.80;;;;;;5080730;28;20300;-68
2024/02/11 10:10:15;;;;;;;4.10;2.88;;;9.50;70.40;;;;;;5072399;28;20182;-68
2024/02/11 10:12:43;;;;;;;4.18;2.65;;;9.60;69.40;;;;;;5071742;28;20234;-67
2024/02/11 10:15:16;;;;;;;4.20;2.03;;;9.60;68.60;;;;;;5071851;28;20196;-68
2024/02/11 10:17:44;;;;;;;3.72;2.38;;;9.60;67.80;;;;;;5089399;28;20212;-68
2024/02/11 10:20:15;;;;;;;3.08;1.98;;;9.60;67.40;;;;;;5075786;28;20209;-68
2024/02/11 10:22:44;;;;;;;3.65;2.67;;;9.60;67.30;;;;;;5072130;28;20187;-68
2024/02/11 10:25:13;;;;;;;4.68;2.55;;;9.60;68.50;;;;;;5071878;28;20197;-68
2024/02/11 10:27:42;;;;;;;3.88;2.67;;;9.60;67.50;;;;;;5073812;28;20194;-68
2024/02/11 10:30:10;;;;;;;6.50;2.85;;;9.60;68.00;;;;;;5076020;28;20220;-68
2024/02/11 10:32:38;;;;;;;4.65;2.67;;;9.60;67.10;;;;;;5075739;28;20245;-68
2024/02/11 10:35:06;;;;;;;3.92;2.53;;;9.60;67.40;;;;;;5075983;28;20240;-68
2024/02/11 10:37:38;;;;;;;6.10;2.65;;;9.60;67.60;;;;;;5076254;28;20213;-68
2024/02/11 10:40:08;;;;;;;3.42;2.17;;;9.60;68.10;;;;;;5075652;28;20273;-67
2024/02/11 10:42:35;;;;;;;5.53;4.95;;;9.60;67.60;;;;;;5075949;28;20533;-68
2024/02/11 10:45:04;;;;;;;5.70;2.80;;;9.70;67.30;;;;;;5076310;28;20233;-67
2024/02/11 10:47:32;;;;;;;5.32;2.22;;;9.70;67.20;;;;;;5075941;28;20213;-68
2024/02/11 10:49:59;;;;;;;4.13;2.95;;;9.70;68.00;;;;;;5076297;28;20202;-68
2024/02/11 10:52:29;;;;;;;4.10;2.13;;;9.70;67.40;;;;;;5075476;28;20664;-68
2024/02/11 10:54:59;;;;;;;3.83;2.85;;;9.70;67.80;;;;;;5075744;28;20704;-68
2024/02/11 10:57:30;;;;;;;5.43;2.60;;;9.70;68.20;;;;;;5075243;28;20277;-68
2024/02/11 11:00:00;;;;;;;3.85;1.80;;;9.80;67.10;;;;;;5075537;28;20609;-68
2024/02/11 11:02:34;;;;;;;4.25;2.40;;;9.80;67.40;;;;;;5075184;28;20269;-68
2024/02/11 11:05:05;;;;;;;4.05;2.15;;;9.70;67.20;;;;;;5075374;28;20189;-68
2024/02/11 11:07:35;;;;;;;3.92;2.45;;;9.70;66.20;;;;;;5075804;28;20277;-68
2024/02/11 11:10:10;;;;;;;3.45;2.10;;;9.70;67.20;;;;;;5075672;28;20181;-68
2024/02/11 11:12:37;;;;;;;3.72;2.22;;;9.70;67.40;;;;;;5075451;28;20192;-68
2024/02/11 11:15:11;;;;;;;4.13;2.10;;;9.70;66.90;;;;;;5074897;28;20182;-67
2024/02/11 11:17:39;;;;;;;3.88;2.13;;;9.70;66.60;;;;;;5091344;28;20208;-68
2024/02/11 11:20:13;;;;;;;3.40;1.60;;;9.80;67.10;;;;;;5095622;28;20300;-68
2024/02/11 11:22:41;;;;;;;3.05;1.83;;;9.80;66.40;;;;;;5095917;28;20188;-68
2024/02/11 11:25:11;;;;;;;3.28;1.90;;;9.80;66.40;;;;;;5095365;28;20194;-68
2024/02/11 11:27:38;;;;;;;3.80;2.45;;;9.90;66.40;;;;;;5090141;28;20644;-68
2024/02/11 11:30:10;;;;;;;3.90;2.00;;;9.90;65.90;;;;;;5074278;28;20195;-68
2024/02/11 11:32:45;;;;;;;3.88;2.20;;;10.00;64.30;;;;;;5075085;28;20189;-68
2024/02/11 11:35:14;;;;;;;3.35;1.90;;;10.00;63.30;;;;;;5074993;28;20595;-68
2024/02/11 11:37:41;;;;;;;3.72;2.47;;;10.00;62.50;;;;;;5074734;28;20236;-68
2024/02/11 11:40:09;;;;;;;3.47;2.00;;;10.00;63.10;;;;;;5073286;28;20703;-68
2024/02/11 11:42:37;;;;;;;5.20;3.08;;;10.00;62.40;;;;;;5074549;28;20229;-68
2024/02/11 11:45:11;;;;;;;4.20;2.35;;;10.00;63.00;;;;;;5075165;28;20613;-68
2024/02/11 11:47:39;;;;;;;3.83;2.00;;;10.00;62.50;;;;;;5074279;28;20212;-68
2024/02/11 11:50:08;;;;;;;3.00;1.75;;;10.00;62.10;;;;;;5071596;28;20630;-68
2024/02/11 11:52:36;;;;;;;3.20;1.90;;;9.90;63.70;;;;;;5074148;28;20197;-68
2024/02/11 11:55:04;;;;;;;2.90;1.30;;;9.90;63.80;;;;;;5081258;28;20177;-68
2024/02/11 11:57:31;;;;;;;2.80;1.65;;;10.00;62.00;;;;;;5094871;28;20293;-68
2024/02/11 11:59:59;;;;;;;3.05;2.00;;;10.00;61.20;;;;;;5094828;28;20615;-68
2024/02/11 12:02:26;;;;;;;4.10;1.85;;;9.90;63.20;;;;;;5085108;28;20532;-68
2024/02/11 12:04:55;;;;;;;3.95;1.95;;;10.00;62.70;;;;;;5074108;28;20284;-68
2024/02/11 12:07:23;;;;;;;2.88;1.73;;;10.00;62.20;;;;;;5074244;28;20244;-68
2024/02/11 12:09:52;;;;;;;3.15;2.17;;;10.00;62.00;;;;;;5054333;28;20198;-68
2024/02/11 12:12:20;;;;;;;3.90;2.58;;;10.00;62.10;;;;;;5054024;28;20283;-68
2024/02/11 12:14:47;;;;;;;3.38;1.50;;;10.10;63.30;;;;;;5053925;28;20210;-68
2024/02/11 12:17:16;;;;;;;4.40;1.85;;;10.10;63.20;;;;;;5053543;28;20199;-68
2024/02/11 12:19:48;;;;;;;3.70;1.55;;;10.20;63.00;;;;;;5070392;28;20194;-68
2024/02/11 12:22:29;;;;;;;3.30;1.95;;;10.30;61.50;;;;;;5073804;28;20185;-68
2024/02/11 12:24:56;;;;;;;4.88;1.67;;;10.30;61.10;;;;;;5073811;28;20213;-68
2024/02/11 12:27:34;;;;;;;3.05;1.77;;;10.30;60.10;;;;;;5074162;28;20205;-68
2024/02/11 12:30:04;;;;;;;4.78;2.22;;;10.30;60.80;;;;;;5074099;28;20209;-67
2024/02/11 12:32:36;;;;;;;3.10;1.85;;;10.30;61.20;;;;;;5073503;28;20175;-68
2024/02/11 12:35:06;;;;;;;3.10;1.85;;;10.30;62.30;;;;;;5073891;28;20270;-68
2024/02/11 12:37:37;;;;;;;2.80;1.83;;;10.30;61.70;;;;;;5073076;28;20285;-68
2024/02/11 12:40:07;;;;;;;4.10;2.95;;;10.40;61.70;;;;;;5071754;28;20183;-68
2024/02/11 12:42:36;;;;;;;5.80;2.55;;;10.40;61.60;;;;;;5073331;28;20210;-68
2024/02/11 12:45:03;;;;;;;2.97;1.88;;;10.50;62.10;;;;;;5071933;28;20616;-68
2024/02/11 12:47:30;;;;;;;2.60;1.50;;;10.50;61.70;;;;;;5073825;28;20607;-68
2024/02/11 12:49:57;;;;;;;3.15;2.10;;;10.50;62.20;;;;;;5073780;28;20226;-68
2024/02/11 12:52:29;;;;;;;3.05;1.90;;;10.50;62.70;;;;;;5073956;28;20207;-68
2024/02/11 12:54:57;;;;;;;2.92;1.70;;;10.50;62.80;;;;;;5073908;28;20234;-68
2024/02/11 12:57:25;;;;;;;2.87;1.90;;;10.60;63.00;;;;;;5073818;28;20285;-68
2024/02/11 12:59:56;;;;;;;2.72;1.85;;;10.60;62.60;;;;;;5073873;28;20436;-68
2024/02/11 13:02:27;;;;;;;3.03;1.60;;;10.60;62.20;;;;;;5073695;28;20196;-68
2024/02/11 13:04:54;;;;;;;3.58;1.83;;;10.70;62.70;;;;;;5073885;28;20239;-68